Terminal Aerodrome Forecast
Issued by NWS

Home | Current Version | Previous Version | Text Only | Print | Product List | Glossary On
Versions: 1 2 3 4 5 6 7 8 9 10 11 12 13 14 15 16
000
FTUS43 KABR 010522
TAFPIR
TAF
KPIR 010522Z 0106/0206 03007KT P6SM SCT250
     FM010800 34011KT P6SM SCT250
     FM011600 33013G23KT P6SM SCT130
     FM011700 32014G23KT P6SM BKN110
     FM020000 32009KT P6SM SCT110=

USA.gov is the U.S. government's official web portal to all federal, state and local government web resources and services.